Time;durP1;ratioP1;P1;durP2;ratioP2;P2;SDS_P1;SDS_P2;PMS_P1;PMS_P2;Temp;Humidity;BMP_temperature;BMP_pressure;BME280_temperature;BME280_humidity;BME280_pressure;Samples;Min_cycle;Max_cycle;Signal;HPM_P1;HPM_P2
2020/12/20 00:02:18;;;;;;;;;;;27.00;42.50;;;;;;5035385;28;20367;-46
2020/12/20 00:04:44;;;;;;;;;;;27.00;42.50;;;;;;5036253;28;19959;-45
2020/12/20 00:07:09;;;;;;;;;;;27.00;42.50;;;;;;5035920;28;20275;-48
2020/12/20 00:09:35;;;;;;;;;;;27.00;42.50;;;;;;5036021;28;19913;-46
2020/12/20 00:12:00;;;;;;;;;;;27.00;42.50;;;;;;5034982;28;19921;-45
2020/12/20 00:14:29;;;;;;;;;;;26.90;42.50;;;;;;5034855;28;19913;-45
2020/12/20 00:17:04;;;;;;;;;;;26.90;42.50;;;;;;5034539;28;19909;-47
2020/12/20 00:19:30;;;;;;;;;;;26.90;42.50;;;;;;5034881;28;19963;-46
2020/12/20 00:21:56;;;;;;;;;;;26.90;42.50;;;;;;5034800;28;19988;-45
2020/12/20 00:24:22;;;;;;;;;;;26.90;42.50;;;;;;5034462;28;19909;-46
2020/12/20 00:26:48;;;;;;;;;;;26.90;42.50;;;;;;5034149;28;19990;-47
2020/12/20 00:29:13;;;;;;;;;;;26.90;42.50;;;;;;5034248;28;19913;-47
2020/12/20 00:31:38;;;;;;;;;;;26.90;42.50;;;;;;5034635;28;20386;-45
2020/12/20 00:34:05;;;;;;;;;;;26.90;42.50;;;;;;5034193;28;19935;-47
2020/12/20 00:36:30;;;;;;;;;;;26.80;42.60;;;;;;5034274;28;19909;-45
2020/12/20 00:38:56;;;;;;;;;;;26.80;42.60;;;;;;5034538;28;19920;-47
2020/12/20 00:41:21;;;;;;;;;;;26.80;42.50;;;;;;5033743;28;19921;-48
2020/12/20 00:43:47;;;;;;;;;;;26.70;42.60;;;;;;5034489;28;19916;-47
2020/12/20 00:46:12;;;;;;;;;;;26.80;42.50;;;;;;5034181;28;20370;-47
2020/12/20 00:48:38;;;;;;;;;;;26.80;42.60;;;;;;5034203;28;19920;-47
2020/12/20 00:51:05;;;;;;;;;;;26.80;42.40;;;;;;5034395;28;19959;-47
2020/12/20 00:53:31;;;;;;;;;;;26.80;42.50;;;;;;5034061;28;19909;-47
2020/12/20 00:55:57;;;;;;;;;;;26.80;42.50;;;;;;5033991;28;20000;-47
2020/12/20 00:58:22;;;;;;;;;;;26.70;42.40;;;;;;5034022;28;19945;-47
2020/12/20 01:00:48;;;;;;;;;;;26.80;42.50;;;;;;5033390;28;20390;-48
2020/12/20 01:03:16;;;;;;;;;;;26.80;42.50;;;;;;5034175;28;20363;-47
2020/12/20 01:05:41;;;;;;;;;;;26.80;42.50;;;;;;5033738;28;19956;-47
2020/12/20 01:08:09;;;;;;;;;;;26.80;42.50;;;;;;5033657;28;19913;-47
2020/12/20 01:10:35;;;;;;;;;;;26.70;42.50;;;;;;5034040;28;20015;-48
2020/12/20 01:13:01;;;;;;;;;;;26.70;42.40;;;;;;4966671;28;1922610;-47
2020/12/20 01:15:29;;;;;;;;;;;26.80;42.40;;;;;;5034615;28;19924;-47
2020/12/20 01:17:58;;;;;;;;;;;26.70;42.40;;;;;;5034926;28;19913;-48
2020/12/20 01:20:24;;;;;;;;;;;26.70;42.40;;;;;;5034662;28;20291;-47
2020/12/20 01:22:49;;;;;;;;;;;26.70;42.40;;;;;;5034555;28;19913;-47
2020/12/20 01:25:15;;;;;;;;;;;26.70;42.40;;;;;;5034542;28;19913;-47
2020/12/20 01:27:40;;;;;;;;;;;26.70;43.00;;;;;;5016358;28;19910;-47
2020/12/20 01:30:06;;;;;;;;;;;26.70;42.40;;;;;;5020602;28;19949;-47
2020/12/20 01:32:31;;;;;;;;;;;26.70;42.50;;;;;;5034523;28;19913;-47
2020/12/20 01:34:57;;;;;;;;;;;26.70;42.50;;;;;;5034481;28;19910;-47
2020/12/20 01:37:22;;;;;;;;;;;26.70;42.50;;;;;;5034588;28;19916;-47
2020/12/20 01:39:48;;;;;;;;;;;26.70;42.40;;;;;;5034120;28;19909;-47
2020/12/20 01:42:13;;;;;;;;;;;26.70;42.40;;;;;;5033320;28;19913;-47
2020/12/20 01:44:39;;;;;;;;;;;26.70;42.40;;;;;;5034066;28;20010;-47
2020/12/20 01:47:05;;;;;;;;;;;26.70;42.40;;;;;;5034348;28;19921;-47
2020/12/20 01:49:30;;;;;;;;;;;26.70;42.30;;;;;;5034310;28;19909;-47
2020/12/20 01:51:56;;;;;;;;;;;26.70;42.30;;;;;;5034269;28;19949;-46
2020/12/20 01:54:21;;;;;;;;;;;26.60;42.40;;;;;;5033915;28;19911;-47
2020/12/20 01:56:47;;;;;;;;;;;26.70;42.40;;;;;;5033898;28;19952;-47
2020/12/20 01:59:12;;;;;;;;;;;26.70;42.30;;;;;;5032611;28;19913;-47
2020/12/20 02:01:37;;;;;;;;;;;26.70;42.30;;;;;;5033929;28;19917;-47
2020/12/20 02:04:03;;;;;;;;;;;26.70;42.30;;;;;;5033908;28;20363;-47
2020/12/20 02:06:29;;;;;;;;;;;26.70;42.20;;;;;;5033631;28;19909;-47
2020/12/20 02:08:54;;;;;;;;;;;26.70;42.30;;;;;;5033725;28;19909;-47
2020/12/20 02:11:20;;;;;;;;;;;26.70;42.20;;;;;;5033389;28;19913;-48
2020/12/20 02:13:46;;;;;;;;;;;26.70;42.20;;;;;;5033537;28;19925;-47
2020/12/20 02:16:12;;;;;;;;;;;26.70;42.10;;;;;;5033871;28;19916;-47
2020/12/20 02:18:38;;;;;;;;;;;26.70;42.20;;;;;;5033291;28;20450;-47
2020/12/20 02:21:09;;;;;;;;;;;26.70;42.20;;;;;;5033367;28;20020;-47
2020/12/20 02:23:38;;;;;;;;;;;26.70;42.30;;;;;;5033687;28;19916;-47
2020/12/20 02:26:04;;;;;;;;;;;26.70;42.30;;;;;;5033502;28;19909;-47
2020/12/20 02:28:29;;;;;;;;;;;26.70;42.20;;;;;;5033350;28;19909;-47
2020/12/20 02:30:55;;;;;;;;;;;26.60;42.20;;;;;;5033565;28;19913;-47
2020/12/20 02:33:20;;;;;;;;;;;26.60;42.40;;;;;;5033208;28;19913;-47
2020/12/20 02:35:46;;;;;;;;;;;26.50;42.30;;;;;;5033010;28;19921;-47
2020/12/20 02:38:11;;;;;;;;;;;26.60;42.40;;;;;;5033517;28;19909;-47
2020/12/20 02:40:37;;;;;;;;;;;26.60;42.30;;;;;;5033333;28;20282;-47
2020/12/20 02:43:03;;;;;;;;;;;26.70;42.20;;;;;;5033177;28;19916;-47
2020/12/20 02:45:28;;;;;;;;;;;26.60;42.20;;;;;;5032903;28;19909;-47
2020/12/20 02:47:54;;;;;;;;;;;26.70;42.20;;;;;;5033168;28;19913;-47
2020/12/20 02:50:19;;;;;;;;;;;26.70;42.70;;;;;;5033279;28;19913;-46
2020/12/20 02:52:45;;;;;;;;;;;26.70;42.10;;;;;;5033176;28;19909;-46
2020/12/20 02:55:10;;;;;;;;;;;26.70;42.10;;;;;;5033179;28;20416;-47
2020/12/20 02:57:35;;;;;;;;;;;26.60;42.10;;;;;;5032897;28;19960;-47
2020/12/20 03:00:01;;;;;;;;;;;26.60;42.10;;;;;;5032266;28;19923;-47
2020/12/20 03:02:26;;;;;;;;;;;26.60;42.10;;;;;;5033081;28;20398;-47
2020/12/20 03:04:52;;;;;;;;;;;26.60;42.00;;;;;;5032737;28;19915;-47
2020/12/20 03:07:17;;;;;;;;;;;26.60;42.00;;;;;;5032884;28;19963;-48
2020/12/20 03:09:43;;;;;;;;;;;26.60;42.00;;;;;;5033055;28;20394;-47
2020/12/20 03:12:08;;;;;;;;;;;26.60;42.00;;;;;;5032667;28;19928;-48
2020/12/20 03:14:34;;;;;;;;;;;26.60;42.00;;;;;;5033037;28;19917;-48
2020/12/20 03:16:59;;;;;;;;;;;26.60;42.00;;;;;;5032764;28;20382;-48
2020/12/20 03:19:24;;;;;;;;;;;26.60;42.00;;;;;;5032458;28;19917;-47
2020/12/20 03:21:50;;;;;;;;;;;26.60;41.90;;;;;;5032965;28;19938;-48
2020/12/20 03:24:15;;;;;;;;;;;26.60;42.00;;;;;;5032740;28;20311;-47
2020/12/20 03:26:41;;;;;;;;;;;26.60;42.00;;;;;;5022704;28;20059;-47
2020/12/20 03:29:06;;;;;;;;;;;26.60;42.00;;;;;;5012926;28;19917;-48
2020/12/20 03:31:32;;;;;;;;;;;26.50;42.00;;;;;;5013085;28;19914;-47
2020/12/20 03:33:57;;;;;;;;;;;26.60;42.10;;;;;;5014075;28;20264;-47
2020/12/20 03:36:23;;;;;;;;;;;26.60;42.00;;;;;;5013084;28;19910;-47
2020/12/20 03:38:48;;;;;;;;;;;26.60;42.00;;;;;;5012743;28;20003;-49
2020/12/20 03:41:14;;;;;;;;;;;26.50;41.90;;;;;;5012977;28;19917;-47
2020/12/20 03:43:39;;;;;;;;;;;26.60;42.00;;;;;;5018880;28;19913;-47
2020/12/20 03:46:05;;;;;;;;;;;26.60;41.90;;;;;;5032171;28;19913;-47
2020/12/20 03:48:30;;;;;;;;;;;26.60;41.90;;;;;;5032743;28;19910;-48
2020/12/20 03:50:56;;;;;;;;;;;26.50;41.90;;;;;;5032727;28;20315;-47
2020/12/20 03:53:22;;;;;;;;;;;26.60;41.80;;;;;;5032693;28;19909;-47
2020/12/20 03:55:47;;;;;;;;;;;26.60;41.80;;;;;;5032288;28;19920;-47
2020/12/20 03:58:12;;;;;;;;;;;26.60;41.80;;;;;;5032339;28;19916;-47
2020/12/20 04:00:39;;;;;;;;;;;26.70;41.70;;;;;;5032141;28;19921;-48
2020/12/20 04:03:04;;;;;;;;;;;26.60;41.80;;;;;;5032296;28;19955;-47
2020/12/20 04:05:30;;;;;;;;;;;26.60;41.80;;;;;;5035437;28;19909;-46
2020/12/20 04:07:55;;;;;;;;;;;26.50;41.80;;;;;;5036004;28;20291;-47
2020/12/20 04:10:21;;;;;;;;;;;26.50;41.80;;;;;;5036150;28;19909;-47
2020/12/20 04:12:46;;;;;;;;;;;26.60;41.80;;;;;;5035811;28;20380;-47
2020/12/20 04:15:12;;;;;;;;;;;26.60;41.80;;;;;;5035815;28;19913;-47
2020/12/20 04:17:37;;;;;;;;;;;26.50;41.80;;;;;;5036100;28;19913;-47
2020/12/20 04:20:03;;;;;;;;;;;26.60;41.70;;;;;;5035781;28;19913;-47
2020/12/20 04:22:28;;;;;;;;;;;26.50;41.80;;;;;;5035703;28;19913;-47
2020/12/20 04:24:54;;;;;;;;;;;26.50;41.80;;;;;;5035885;28;19909;-47
2020/12/20 04:27:19;;;;;;;;;;;26.50;41.80;;;;;;5035522;28;20349;-47
2020/12/20 04:29:45;;;;;;;;;;;26.50;41.80;;;;;;5035619;28;19913;-47
2020/12/20 04:32:10;;;;;;;;;;;26.50;42.00;;;;;;5035662;28;20379;-47
2020/12/20 04:34:36;;;;;;;;;;;26.50;41.90;;;;;;5025680;28;19913;-47
2020/12/20 04:37:01;;;;;;;;;;;26.50;41.90;;;;;;5015649;28;20295;-47
2020/12/20 04:39:27;;;;;;;;;;;26.50;41.80;;;;;;5031073;28;19924;-47
2020/12/20 04:41:52;;;;;;;;;;;26.50;41.70;;;;;;5035272;28;19952;-47
2020/12/20 04:44:18;;;;;;;;;;;26.50;41.70;;;;;;5035321;28;19921;-47
2020/12/20 04:46:43;;;;;;;;;;;26.50;41.70;;;;;;5035506;28;19939;-47
2020/12/20 04:49:09;;;;;;;;;;;26.50;41.80;;;;;;5035210;28;20069;-47
2020/12/20 04:51:35;;;;;;;;;;;26.50;41.80;;;;;;5035467;28;19909;-47
2020/12/20 04:54:00;;;;;;;;;;;26.50;41.80;;;;;;5034713;28;20279;-47
2020/12/20 04:56:26;;;;;;;;;;;26.50;41.80;;;;;;5067361;28;19918;-47
2020/12/20 04:58:52;;;;;;;;;;;26.50;41.70;;;;;;5034715;28;20371;-47
2020/12/20 05:01:17;;;;;;;;;;;26.50;41.60;;;;;;5033916;28;19917;-47
2020/12/20 05:03:43;;;;;;;;;;;26.50;41.70;;;;;;5035273;28;20200;-48
2020/12/20 05:06:08;;;;;;;;;;;26.50;41.70;;;;;;5034940;28;20390;-47
2020/12/20 05:08:34;;;;;;;;;;;26.40;41.70;;;;;;5033897;28;20029;-47
2020/12/20 05:10:59;;;;;;;;;;;26.50;41.80;;;;;;5035003;28;19909;-47
2020/12/20 05:13:36;;;;;;;;;;;26.40;41.80;;;;;;5034384;28;20363;-48
2020/12/20 05:16:02;;;;;;;;;;;26.40;41.70;;;;;;5033762;28;19931;-48
2020/12/20 05:18:27;;;;;;;;;;;26.40;41.70;;;;;;5034910;28;19909;-48
2020/12/20 05:20:53;;;;;;;;;;;26.40;41.70;;;;;;5034526;28;19929;-48
2020/12/20 05:23:18;;;;;;;;;;;26.40;41.70;;;;;;5034489;28;19913;-47
2020/12/20 05:25:44;;;;;;;;;;;26.40;41.70;;;;;;5034822;28;19913;-47
2020/12/20 05:28:18;;;;;;;;;;;26.50;41.70;;;;;;5034856;28;20413;-47
2020/12/20 05:30:44;;;;;;;;;;;26.50;41.60;;;;;;5034394;28;19910;-46
2020/12/20 05:33:10;;;;;;;;;;;26.50;41.70;;;;;;5034344;28;19917;-47
2020/12/20 05:35:35;;;;;;;;;;;26.50;41.60;;;;;;5034136;28;19916;-47
2020/12/20 05:38:01;;;;;;;;;;;26.50;41.60;;;;;;5034342;28;19913;-47
2020/12/20 05:40:28;;;;;;;;;;;26.50;41.70;;;;;;5034085;28;20363;-47
2020/12/20 05:42:56;;;;;;;;;;;26.50;41.60;;;;;;5034307;28;19986;-47
2020/12/20 05:45:22;;;;;;;;;;;26.50;41.60;;;;;;5034046;28;19910;-46
2020/12/20 05:47:48;;;;;;;;;;;26.50;41.60;;;;;;5034316;28;19944;-47
2020/12/20 05:50:13;;;;;;;;;;;26.50;41.60;;;;;;5034347;28;19976;-47
2020/12/20 05:52:39;;;;;;;;;;;26.50;41.60;;;;;;5033410;28;19920;-46
2020/12/20 05:55:11;;;;;;;;;;;26.40;41.70;;;;;;5033869;28;19917;-46
2020/12/20 05:57:36;;;;;;;;;;;26.40;41.70;;;;;;5033966;28;19909;-47
2020/12/20 06:00:02;;;;;;;;;;;26.40;41.70;;;;;;5034107;28;19955;-47
2020/12/20 06:02:27;;;;;;;;;;;26.50;41.60;;;;;;5034009;28;20264;-47
2020/12/20 06:04:53;;;;;;;;;;;26.50;41.60;;;;;;5032294;28;19913;-47
2020/12/20 06:07:18;;;;;;;;;;;26.40;41.50;;;;;;5066071;28;19917;-47
2020/12/20 06:09:57;;;;;;;;;;;26.40;41.60;;;;;;5066070;28;20271;-47
2020/12/20 06:12:23;;;;;;;;;;;26.40;41.70;;;;;;5033455;28;19975;-47
2020/12/20 06:14:49;;;;;;;;;;;26.40;41.60;;;;;;5033614;28;19913;-47
2020/12/20 06:17:15;;;;;;;;;;;26.40;41.70;;;;;;5033484;28;19981;-47
2020/12/20 06:19:44;;;;;;;;;;;26.40;41.60;;;;;;5033184;28;19948;-47
2020/12/20 06:22:09;;;;;;;;;;;26.40;41.70;;;;;;5033387;28;19979;-47
2020/12/20 06:24:38;;;;;;;;;;;26.40;41.60;;;;;;5032301;28;19956;-47
2020/12/20 06:27:03;;;;;;;;;;;26.30;41.70;;;;;;5032032;28;19909;-47
2020/12/20 06:29:29;;;;;;;;;;;26.40;41.80;;;;;;5032424;28;20285;-47
2020/12/20 06:31:55;;;;;;;;;;;26.40;41.70;;;;;;5032871;28;19920;-47
2020/12/20 06:34:20;;;;;;;;;;;26.40;41.50;;;;;;5057339;28;19921;-47
2020/12/20 06:36:46;;;;;;;;;;;26.40;41.60;;;;;;5012570;28;19955;-46
2020/12/20 06:39:16;;;;;;;;;;;26.40;41.60;;;;;;5030890;28;20217;-47
2020/12/20 06:41:42;;;;;;;;;;;26.40;41.50;;;;;;5033352;28;19917;-47
2020/12/20 06:44:13;;;;;;;;;;;26.40;41.50;;;;;;5033018;28;19909;-47
2020/12/20 06:46:39;;;;;;;;;;;26.40;41.60;;;;;;5032716;28;20343;-47
2020/12/20 06:49:29;;;;;;;;;;;26.40;41.60;;;;;;5033367;28;20044;-47
2020/12/20 06:52:15;;;;;;;;;;;26.40;41.50;;;;;;5033319;28;19910;-47
2020/12/20 06:54:40;;;;;;;;;;;26.40;41.60;;;;;;5032848;28;19917;-47
2020/12/20 06:57:08;;;;;;;;;;;26.40;41.50;;;;;;5033036;28;19913;-47
2020/12/20 06:59:51;;;;;;;;;;;26.40;41.50;;;;;;5033179;28;20367;-47
2020/12/20 07:02:35;;;;;;;;;;;26.40;41.50;;;;;;5032906;28;20078;-47
2020/12/20 07:05:00;;;;;;;;;;;26.40;41.50;;;;;;5032741;28;19913;-47
2020/12/20 07:07:26;;;;;;;;;;;26.40;41.60;;;;;;5032845;28;19940;-47
2020/12/20 07:09:51;;;;;;;;;;;26.40;41.60;;;;;;5032814;28;19963;-47
2020/12/20 07:12:32;;;;;;;;;;;26.40;41.50;;;;;;5032829;28;19932;-47
2020/12/20 07:14:58;;;;;;;;;;;26.40;41.60;;;;;;5064742;28;19916;-47
2020/12/20 07:17:24;;;;;;;;;;;26.40;41.60;;;;;;5033117;28;20276;-49
2020/12/20 07:20:09;;;;;;;;;;;26.30;41.70;;;;;;5032410;28;19940;-49
2020/12/20 07:22:34;;;;;;;;;;;26.30;41.60;;;;;;5013268;28;20390;-48
2020/12/20 07:24:59;;;;;;;;;;;26.40;41.50;;;;;;5013272;28;20043;-48
2020/12/20 07:27:25;;;;;;;;;;;26.30;41.50;;;;;;5029013;28;19917;-47
2020/12/20 07:29:50;;;;;;;;;;;26.40;41.50;;;;;;5031719;28;19958;-47
2020/12/20 07:32:16;;;;;;;;;;;26.40;41.40;;;;;;5032708;28;19920;-47
2020/12/20 07:34:45;;;;;;;;;;;26.40;41.40;;;;;;5031286;28;19920;-47
2020/12/20 07:37:11;;;;;;;;;;;26.40;41.40;;;;;;5032649;28;20032;-47
2020/12/20 07:39:37;;;;;;;;;;;26.30;41.50;;;;;;5034428;28;19982;-47
2020/12/20 07:42:02;;;;;;;;;;;26.40;41.50;;;;;;5036479;28;19923;-47
2020/12/20 07:44:28;;;;;;;;;;;26.40;41.40;;;;;;5036261;28;19956;-47
2020/12/20 07:46:53;;;;;;;;;;;26.40;41.50;;;;;;5036360;28;19916;-47
2020/12/20 07:49:19;;;;;;;;;;;26.30;41.50;;;;;;5035930;28;20275;-48
2020/12/20 07:51:44;;;;;;;;;;;26.40;41.40;;;;;;5036611;28;19916;-47
2020/12/20 07:54:10;;;;;;;;;;;26.40;41.50;;;;;;5036484;28;20000;-47
2020/12/20 07:56:40;;;;;;;;;;;26.30;41.50;;;;;;5036148;28;19913;-47
2020/12/20 07:59:09;;;;;;;;;;;26.40;41.40;;;;;;5036357;28;19909;-47
2020/12/20 08:01:34;;;;;;;;;;;26.40;41.40;;;;;;5036111;28;19924;-47
2020/12/20 08:04:08;;;;;;;;;;;26.40;41.40;;;;;;5036276;28;19909;-47
2020/12/20 08:06:37;;;;;;;;;;;26.30;41.40;;;;;;5035950;28;20370;-47
2020/12/20 08:09:03;;;;;;;;;;;26.40;41.40;;;;;;5036066;28;19932;-47
2020/12/20 08:11:29;;;;;;;;;;;26.40;41.40;;;;;;5035674;28;19909;-47
2020/12/20 08:13:55;;;;;;;;;;;26.30;41.40;;;;;;5034938;28;19918;-47
2020/12/20 08:16:31;;;;;;;;;;;26.30;41.40;;;;;;5036097;28;20385;-47
2020/12/20 08:19:02;;;;;;;;;;;26.30;41.40;;;;;;5035818;28;20359;-47
2020/12/20 08:21:40;;;;;;;;;;;26.30;41.40;;;;;;5035637;28;19932;-47
2020/12/20 08:24:05;;;;;;;;;;;26.30;41.40;;;;;;5035319;28;20376;-47
2020/12/20 08:26:33;;;;;;;;;;;26.40;41.30;;;;;;5026840;28;19910;-47
2020/12/20 08:28:58;;;;;;;;;;;26.40;41.30;;;;;;5015826;28;20047;-47
2020/12/20 08:31:30;;;;;;;;;;;26.30;41.40;;;;;;5015811;28;20033;-47
2020/12/20 08:33:56;;;;;;;;;;;26.40;41.40;;;;;;5020338;28;20279;-47
2020/12/20 08:36:22;;;;;;;;;;;26.30;41.40;;;;;;5035526;28;19920;-47
2020/12/20 08:38:48;;;;;;;;;;;26.30;41.30;;;;;;5035644;28;19963;-47
2020/12/20 08:41:19;;;;;;;;;;;26.30;41.30;;;;;;5035506;28;19928;-47
2020/12/20 08:43:45;;;;;;;;;;;26.30;41.30;;;;;;5035268;28;20355;-48
2020/12/20 08:46:25;;;;;;;;;;;26.30;41.30;;;;;;5035109;28;19913;-47
2020/12/20 08:48:50;;;;;;;;;;;26.30;41.30;;;;;;5035163;28;19915;-47
2020/12/20 08:51:21;;;;;;;;;;;26.40;41.30;;;;;;5035013;28;19948;-48
2020/12/20 08:53:46;;;;;;;;;;;26.30;41.30;;;;;;5035170;28;19913;-47
2020/12/20 08:56:12;;;;;;;;;;;26.40;41.30;;;;;;5035396;28;20259;-47
2020/12/20 08:58:37;;;;;;;;;;;26.40;41.30;;;;;;5035139;28;19910;-47
2020/12/20 09:01:03;;;;;;;;;;;26.40;41.30;;;;;;5034888;28;19921;-47
2020/12/20 09:03:28;;;;;;;;;;;26.40;41.30;;;;;;5034916;28;19921;-47
2020/12/20 09:05:54;;;;;;;;;;;26.40;41.20;;;;;;5034783;28;19917;-48
2020/12/20 09:08:21;;;;;;;;;;;26.40;41.30;;;;;;5034375;28;19982;-47
2020/12/20 09:10:46;;;;;;;;;;;26.30;41.30;;;;;;5035027;28;19909;-48
2020/12/20 09:13:12;;;;;;;;;;;26.30;41.20;;;;;;5034527;28;19921;-47
2020/12/20 09:15:41;;;;;;;;;;;26.30;41.30;;;;;;5035001;28;20035;-47
2020/12/20 09:18:13;;;;;;;;;;;26.30;41.30;;;;;;5034956;28;20004;-48
2020/12/20 09:20:40;;;;;;;;;;;26.30;41.40;;;;;;5034775;28;19917;-48
2020/12/20 09:23:05;;;;;;;;;;;26.30;41.50;;;;;;5033822;28;19917;-48
2020/12/20 09:25:31;;;;;;;;;;;26.30;41.50;;;;;;5066444;28;19909;-48
2020/12/20 09:27:59;;;;;;;;;;;26.40;41.50;;;;;;5034761;28;19920;-48
2020/12/20 09:30:30;;;;;;;;;;;26.40;41.50;;;;;;5034874;28;19909;-47
2020/12/20 09:32:56;;;;;;;;;;;26.30;41.50;;;;;;5034696;28;19941;-47
2020/12/20 09:35:21;;;;;;;;;;;26.40;41.40;;;;;;5034204;28;19963;-47
2020/12/20 09:37:47;;;;;;;;;;;26.40;41.30;;;;;;5034376;28;19917;-47
2020/12/20 09:40:12;;;;;;;;;;;26.40;41.20;;;;;;5034542;28;19936;-47
2020/12/20 09:42:38;;;;;;;;;;;26.40;41.20;;;;;;5065912;28;19945;-47
2020/12/20 09:45:04;;;;;;;;;;;26.40;41.30;;;;;;5034000;28;19913;-48
2020/12/20 09:47:29;;;;;;;;;;;26.40;41.30;;;;;;5034066;28;19921;-47
2020/12/20 09:49:55;;;;;;;;;;;26.30;41.20;;;;;;5033976;28;19914;-47
2020/12/20 09:52:20;;;;;;;;;;;26.30;41.20;;;;;;5034049;28;19913;-47
2020/12/20 09:54:46;;;;;;;;;;;26.30;41.20;;;;;;5034251;28;19917;-47
2020/12/20 09:57:11;;;;;;;;;;;26.40;41.10;;;;;;5034193;28;19910;-48
2020/12/20 09:59:37;;;;;;;;;;;26.30;41.30;;;;;;5033867;28;19913;-48
2020/12/20 10:02:02;;;;;;;;;;;26.30;41.20;;;;;;5033066;28;19921;-48
2020/12/20 10:04:28;;;;;;;;;;;26.30;41.30;;;;;;5033283;28;19916;-47
2020/12/20 10:06:53;;;;;;;;;;;26.30;41.40;;;;;;5033517;28;19913;-48
2020/12/20 10:09:19;;;;;;;;;;;26.30;41.30;;;;;;5034007;28;19932;-47
2020/12/20 10:11:44;;;;;;;;;;;26.40;41.40;;;;;;5033334;28;19927;-48
2020/12/20 10:14:09;;;;;;;;;;;26.40;41.40;;;;;;5033882;28;19917;-47
2020/12/20 10:16:36;;;;;;;;;;;26.40;41.30;;;;;;5033284;28;19996;-47
2020/12/20 10:19:01;;;;;;;;;;;26.40;41.30;;;;;;5033482;28;20371;-48
2020/12/20 10:21:27;;;;;;;;;;;26.40;41.30;;;;;;5033658;28;19917;-48
2020/12/20 10:23:52;;;;;;;;;;;26.40;41.30;;;;;;5033681;28;20271;-48
2020/12/20 10:26:17;;;;;;;;;;;26.40;41.30;;;;;;5033653;28;19909;-48
2020/12/20 10:28:43;;;;;;;;;;;26.40;41.30;;;;;;5033373;28;20321;-47
2020/12/20 10:31:08;;;;;;;;;;;26.40;41.40;;;;;;5033381;28;19913;-47
2020/12/20 10:33:34;;;;;;;;;;;26.40;41.40;;;;;;5031888;28;19931;-47
2020/12/20 10:35:59;;;;;;;;;;;26.40;41.40;;;;;;5013730;28;19917;-47
2020/12/20 10:38:25;;;;;;;;;;;26.40;41.40;;;;;;5013776;28;20360;-47
2020/12/20 10:40:50;;;;;;;;;;;26.40;41.40;;;;;;5013679;28;19921;-47
2020/12/20 10:43:16;;;;;;;;;;;26.30;41.50;;;;;;5013526;28;19994;-47
2020/12/20 10:45:41;;;;;;;;;;;26.40;41.50;;;;;;5023891;28;20355;-47
2020/12/20 10:48:07;;;;;;;;;;;26.40;41.60;;;;;;5033127;28;19949;-47
2020/12/20 10:50:33;;;;;;;;;;;26.30;41.60;;;;;;5033018;28;19928;-47
2020/12/20 10:52:59;;;;;;;;;;;26.40;41.60;;;;;;5033044;28;20007;-47
2020/12/20 10:55:24;;;;;;;;;;;26.30;41.50;;;;;;5032669;28;19945;-47
2020/12/20 10:57:50;;;;;;;;;;;26.30;42.30;;;;;;5032785;28;19921;-47
2020/12/20 11:00:15;;;;;;;;;;;26.30;41.60;;;;;;5032498;28;19917;-48
2020/12/20 11:02:41;;;;;;;;;;;26.40;41.60;;;;;;5032833;28;19913;-47
2020/12/20 11:05:06;;;;;;;;;;;26.40;41.70;;;;;;5033134;28;19913;-47
2020/12/20 11:07:32;;;;;;;;;;;26.30;41.70;;;;;;5033125;28;19913;-47
2020/12/20 11:09:57;;;;;;;;;;;26.30;41.70;;;;;;5033172;28;20271;-47
2020/12/20 11:12:23;;;;;;;;;;;26.40;41.70;;;;;;5032634;28;19921;-48
2020/12/20 11:14:48;;;;;;;;;;;26.30;41.70;;;;;;5036971;28;19913;-48
2020/12/20 11:17:14;;;;;;;;;;;26.30;41.70;;;;;;5035449;28;19917;-47
2020/12/20 11:19:39;;;;;;;;;;;26.40;41.70;;;;;;5036641;28;19913;-47
2020/12/20 11:22:05;;;;;;;;;;;26.30;41.80;;;;;;5036634;28;19921;-47
2020/12/20 11:24:30;;;;;;;;;;;26.20;41.90;;;;;;5036884;28;19964;-47
2020/12/20 11:26:56;;;;;;;;;;;26.20;42.00;;;;;;5036715;28;19924;-48
2020/12/20 11:29:21;;;;;;;;;;;26.20;42.30;;;;;;5036371;28;19917;-46
2020/12/20 11:31:47;;;;;;;;;;;26.30;42.30;;;;;;5036671;28;20264;-48
2020/12/20 11:34:13;;;;;;;;;;;26.30;42.10;;;;;;5036452;28;19913;-48
2020/12/20 11:36:38;;;;;;;;;;;26.30;42.10;;;;;;5036918;28;19916;-47
2020/12/20 11:39:04;;;;;;;;;;;26.30;42.10;;;;;;5036712;28;19963;-47
2020/12/20 11:41:31;;;;;;;;;;;26.30;42.10;;;;;;5036692;28;19944;-46
2020/12/20 11:43:57;;;;;;;;;;;26.40;42.00;;;;;;5036124;28;19913;-47
2020/12/20 11:46:22;;;;;;;;;;;26.40;41.90;;;;;;5036760;28;19913;-46
2020/12/20 11:48:48;;;;;;;;;;;26.40;41.80;;;;;;5036338;28;19913;-47
2020/12/20 11:51:13;;;;;;;;;;;26.40;41.80;;;;;;5036629;28;19916;-47
2020/12/20 11:53:39;;;;;;;;;;;26.50;41.80;;;;;;5036542;28;19971;-48
2020/12/20 11:56:06;;;;;;;;;;;26.50;41.70;;;;;;5036155;28;20055;-47
2020/12/20 11:58:31;;;;;;;;;;;26.50;41.70;;;;;;5035951;28;19917;-47
2020/12/20 12:00:57;;;;;;;;;;;26.50;41.70;;;;;;5036084;28;20019;-48
2020/12/20 12:03:22;;;;;;;;;;;26.50;41.80;;;;;;5036343;28;20695;-48
2020/12/20 12:05:47;;;;;;;;;;;26.50;41.70;;;;;;5035837;28;20352;-47
2020/12/20 12:08:13;;;;;;;;;;;26.50;41.70;;;;;;5036001;28;19979;-47
2020/12/20 12:10:39;;;;;;;;;;;26.40;41.80;;;;;;5036160;28;19924;-47
2020/12/20 12:13:04;;;;;;;;;;;26.40;41.90;;;;;;5036088;28;19927;-47
2020/12/20 12:15:30;;;;;;;;;;;26.30;41.90;;;;;;5035513;28;19914;-47
2020/12/20 12:17:55;;;;;;;;;;;26.40;41.90;;;;;;5035704;28;19909;-48
2020/12/20 12:20:21;;;;;;;;;;;26.30;42.00;;;;;;5035964;28;20290;-47
2020/12/20 12:22:47;;;;;;;;;;;26.30;42.10;;;;;;5036006;28;20217;-47
2020/12/20 12:25:13;;;;;;;;;;;26.30;42.10;;;;;;5034990;28;20371;-47
2020/12/20 12:27:38;;;;;;;;;;;26.30;42.10;;;;;;5035352;28;19914;-47
2020/12/20 12:30:04;;;;;;;;;;;26.30;42.10;;;;;;5035641;28;20449;-47
2020/12/20 12:32:29;;;;;;;;;;;26.30;42.10;;;;;;5035546;28;19909;-47
2020/12/20 12:34:56;;;;;;;;;;;26.30;42.60;;;;;;5035583;28;19909;-47
2020/12/20 12:37:22;;;;;;;;;;;26.40;42.00;;;;;;5035620;28;19909;-47
2020/12/20 12:39:47;;;;;;;;;;;26.30;41.90;;;;;;5035441;28;19939;-47
2020/12/20 12:42:13;;;;;;;;;;;26.30;41.90;;;;;;5035272;28;19921;-47
2020/12/20 12:44:41;;;;;;;;;;;26.30;41.90;;;;;;5035280;28;19909;-47
2020/12/20 12:47:08;;;;;;;;;;;26.40;42.00;;;;;;5035197;28;19914;-47
2020/12/20 12:49:33;;;;;;;;;;;26.40;42.10;;;;;;5035246;28;19920;-48
2020/12/20 12:51:59;;;;;;;;;;;26.30;42.00;;;;;;5035497;28;19909;-50
2020/12/20 12:54:24;;;;;;;;;;;26.40;42.00;;;;;;5035403;28;20278;-43
2020/12/20 12:56:50;;;;;;;;;;;26.60;41.70;;;;;;5035428;28;19915;-45
2020/12/20 12:59:15;;;;;;;;;;;26.70;41.80;;;;;;5034787;28;19909;-48
2020/12/20 13:01:41;;;;;;;;;;;26.70;41.80;;;;;;5034430;28;19921;-49
2020/12/20 13:04:11;;;;;;;;;;;26.70;41.90;;;;;;5034869;28;20281;-48
2020/12/20 13:06:37;;;;;;;;;;;26.70;41.80;;;;;;5034882;28;19944;-47
2020/12/20 13:09:02;;;;;;;;;;;26.60;41.70;;;;;;5034874;28;20406;-48
2020/12/20 13:11:28;;;;;;;;;;;26.60;41.70;;;;;;5034650;28;20007;-45
2020/12/20 13:13:53;;;;;;;;;;;26.60;41.60;;;;;;5035026;28;19929;-46
2020/12/20 13:16:19;;;;;;;;;;;26.70;41.60;;;;;;5034755;28;19916;-46
2020/12/20 13:18:44;;;;;;;;;;;26.60;41.60;;;;;;5034632;28;19913;-47
2020/12/20 13:21:17;;;;;;;;;;;26.60;41.70;;;;;;5034928;28;20351;-46
2020/12/20 13:23:42;;;;;;;;;;;26.60;41.60;;;;;;5034588;28;19913;-45
2020/12/20 13:26:08;;;;;;;;;;;26.70;41.60;;;;;;5029218;28;20024;-47
2020/12/20 13:28:33;;;;;;;;;;;26.70;41.60;;;;;;5021513;28;20357;-49
2020/12/20 13:30:58;;;;;;;;;;;26.60;41.50;;;;;;5034434;28;20430;-51
2020/12/20 13:33:25;;;;;;;;;;;26.60;41.60;;;;;;5034373;28;19909;-47
2020/12/20 13:35:51;;;;;;;;;;;26.60;41.60;;;;;;5034008;28;20295;-47
2020/12/20 13:38:19;;;;;;;;;;;26.60;41.60;;;;;;5033795;28;19909;-48
2020/12/20 13:40:44;;;;;;;;;;;26.60;41.60;;;;;;5034285;28;19917;-49
2020/12/20 13:43:12;;;;;;;;;;;26.60;41.60;;;;;;5034020;28;19909;-48
2020/12/20 13:45:38;;;;;;;;;;;26.50;41.60;;;;;;5034066;28;19917;-54
2020/12/20 13:48:03;;;;;;;;;;;26.60;41.60;;;;;;5034400;28;20371;-48
2020/12/20 13:50:29;;;;;;;;;;;26.60;41.60;;;;;;5034087;28;19913;-46
2020/12/20 13:52:54;;;;;;;;;;;26.60;41.50;;;;;;5034294;28;19920;-47
2020/12/20 13:55:20;;;;;;;;;;;26.50;41.60;;;;;;5033898;28;20347;-46
2020/12/20 13:57:45;;;;;;;;;;;26.50;41.60;;;;;;5033582;28;19963;-47
2020/12/20 14:00:10;;;;;;;;;;;26.50;41.70;;;;;;5033417;28;19924;-47
2020/12/20 14:02:36;;;;;;;;;;;26.60;41.60;;;;;;5034116;28;19948;-46
2020/12/20 14:05:01;;;;;;;;;;;26.50;41.60;;;;;;5033555;28;19915;-46
2020/12/20 14:07:27;;;;;;;;;;;26.60;41.60;;;;;;5033910;28;19920;-49
2020/12/20 14:09:52;;;;;;;;;;;26.60;41.60;;;;;;5033627;28;19935;-47
2020/12/20 14:12:18;;;;;;;;;;;26.50;41.50;;;;;;5033457;28;19921;-47